Sanar 4 — UBPI3 — position and weather

sailwx.info

Track history (hours):
 
Tides and Currents Weather Stations Pressure Air Temp Water Temp Dewpoint Dewpoint Depression Visibility Wind Speed Wind Dir Waves Ship Positions

Sanar 4

Last reported at 2018-Feb-10 18:21 UTC. Time now 2018-Feb-19 20:09 UTC.
Position N 45°32' E 036°45'.
Warning: this ship's position is 9 days out of date.

Length 140 m; draft 2.9 m.

Type: Ship. MMSI: 273359760.

Date/timePositionNaut miles runAvg speedWind from/ knotsBaromVisibWave heightAir tempDewpointWater temp
2018-Feb-10 18:21N 45°32' E 036°45'2 6.4
2018-Feb-10 18:00N 45°30' E 036°42'3 6.3
2018-Feb-10 17:30N 45°28' E 036°39'1 0.4
2018-Feb-10 14:46N 45°28' E 036°38'0 0.1
2018-Feb-10 14:28N 45°28' E 036°38'0 0.0
2018-Feb-10 13:55N 45°28' E 036°38'0 0.1
2018-Feb-10 12:58N 45°28' E 036°38'0 0.0
2018-Feb-10 12:28N 45°28' E 036°38'0 0.0
2018-Feb-10 11:46N 45°28' E 036°38'0 0.0
2018-Feb-10 09:34N 45°28' E 036°38'0 0.1
2018-Feb-10 09:22N 45°28' E 036°38'0 0.1
2018-Feb-10 08:58N 45°28' E 036°38'0 0.0
2018-Feb-10 08:19N 45°28' E 036°38'0 0.1
2018-Feb-10 07:58N 45°28' E 036°38'0 0.0
2018-Feb-10 07:30N 45°28' E 036°38'0 0.1
2018-Feb-10 07:00N 45°28' E 036°38'0 0.0
2018-Feb-10 06:30N 45°28' E 036°38'0 0.0
2018-Feb-10 06:00N 45°28' E 036°38'0 0.0
2018-Feb-10 05:27N 45°28' E 036°38'0 0.0
2018-Feb-10 05:00N 45°28' E 036°38'0 0.0
2018-Feb-10 04:30N 45°28' E 036°38'0 0.0
2018-Feb-10 03:37N 45°28' E 036°38'0 3.2
2018-Feb-10 03:30N 45°28' E 036°38'3 5.6
2018-Feb-10 03:00N 45°25' E 036°41'4 7.3
2018-Feb-10 02:30N 45°22' E 036°40'4 7.1
2018-Feb-10 02:00N 45°20' E 036°35'0 0.0
2018-Feb-08 15:30N 45°20' E 036°35'4 8.3
2018-Feb-08 15:00N 45°22' E 036°40'  
Track history (hours):
 
Tides and Currents Weather Stations Pressure Air Temp Water Temp Dewpoint Dewpoint Depression Visibility Wind Speed Wind Dir Waves Ship Positions

Sanar 4

Last reported at 2018-Feb-10 18:21 UTC. Time now 2018-Feb-19 20:09 UTC.
Position N 45°32' E 036°45'.
Warning: this ship's position is 9 days out of date.

Length 140 m; draft 2.9 m.

Type: Ship. MMSI: 273359760.

Date/timePositionNaut miles runAvg speedWind from/ knotsBaromVisibWave heightAir tempDewpointWater temp
2018-Feb-10 18:21N 45°32' E 036°45'2 6.4
2018-Feb-10 18:00N 45°30' E 036°42'3 6.3
2018-Feb-10 17:30N 45°28' E 036°39'1 0.4
2018-Feb-10 14:46N 45°28' E 036°38'0 0.1
2018-Feb-10 14:28N 45°28' E 036°38'0 0.0
2018-Feb-10 13:55N 45°28' E 036°38'0 0.1
2018-Feb-10 12:58N 45°28' E 036°38'0 0.0
2018-Feb-10 12:28N 45°28' E 036°38'0 0.0
2018-Feb-10 11:46N 45°28' E 036°38'0 0.0
2018-Feb-10 09:34N 45°28' E 036°38'0 0.1
2018-Feb-10 09:22N 45°28' E 036°38'0 0.1
2018-Feb-10 08:58N 45°28' E 036°38'0 0.0
2018-Feb-10 08:19N 45°28' E 036°38'0 0.1
2018-Feb-10 07:58N 45°28' E 036°38'0 0.0
2018-Feb-10 07:30N 45°28' E 036°38'0 0.1
2018-Feb-10 07:00N 45°28' E 036°38'0 0.0
2018-Feb-10 06:30N 45°28' E 036°38'0 0.0
2018-Feb-10 06:00N 45°28' E 036°38'0 0.0
2018-Feb-10 05:27N 45°28' E 036°38'0 0.0
2018-Feb-10 05:00N 45°28' E 036°38'0 0.0
2018-Feb-10 04:30N 45°28' E 036°38'0 0.0
2018-Feb-10 03:37N 45°28' E 036°38'0 3.2
2018-Feb-10 03:30N 45°28' E 036°38'3 5.6
2018-Feb-10 03:00N 45°25' E 036°41'4 7.3
2018-Feb-10 02:30N 45°22' E 036°40'4 7.1
2018-Feb-10 02:00N 45°20' E 036°35'0 0.0
2018-Feb-08 15:30N 45°20' E 036°35'4 8.3
2018-Feb-08 15:00N 45°22' E 036°40'  

Dump ship's entire track history